sensor_id;sensor_type;location;lat;lon;timestamp;temperature;humidity
16814;DHT22;8524;57.650;11.926;2023-09-19T00:01:35;18.10;99.90
16814;DHT22;8524;57.650;11.926;2023-09-19T00:04:03;18.10;99.90
16814;DHT22;8524;57.650;11.926;2023-09-19T00:06:35;18.10;99.90
16814;DHT22;8524;57.650;11.926;2023-09-19T00:09:02;18.00;99.90
16814;DHT22;8524;57.650;11.926;2023-09-19T00:11:30;18.00;99.90
16814;DHT22;8524;57.650;11.926;2023-09-19T00:13:57;18.00;99.90
16814;DHT22;8524;57.650;11.926;2023-09-19T00:16:25;18.00;99.90
16814;DHT22;8524;57.650;11.926;2023-09-19T00:18:52;18.10;99.90
16814;DHT22;8524;57.650;11.926;2023-09-19T00:21:20;18.10;99.90
16814;DHT22;8524;57.650;11.926;2023-09-19T00:23:47;18.20;99.90
16814;DHT22;8524;57.650;11.926;2023-09-19T00:26:14;18.20;99.90
16814;DHT22;8524;57.650;11.926;2023-09-19T00:28:43;18.20;99.90
16814;DHT22;8524;57.650;11.926;2023-09-19T00:31:10;18.20;99.90
16814;DHT22;8524;57.650;11.926;2023-09-19T00:33:37;18.10;99.90
16814;DHT22;8524;57.650;11.926;2023-09-19T00:36:04;18.10;99.90
16814;DHT22;8524;57.650;11.926;2023-09-19T00:38:32;18.10;99.90
16814;DHT22;8524;57.650;11.926;2023-09-19T00:40:59;18.00;99.90
16814;DHT22;8524;57.650;11.926;2023-09-19T00:43:27;18.00;99.90
16814;DHT22;8524;57.650;11.926;2023-09-19T00:45:56;18.10;99.90
16814;DHT22;8524;57.650;11.926;2023-09-19T00:48:23;18.10;99.90
16814;DHT22;8524;57.650;11.926;2023-09-19T00:50:52;18.10;99.90
16814;DHT22;8524;57.650;11.926;2023-09-19T00:53:21;18.10;99.90
16814;DHT22;8524;57.650;11.926;2023-09-19T00:55:52;18.10;99.90
16814;DHT22;8524;57.650;11.926;2023-09-19T00:58:19;18.10;99.90
16814;DHT22;8524;57.650;11.926;2023-09-19T01:00:48;18.10;99.90
16814;DHT22;8524;57.650;11.926;2023-09-19T01:03:15;18.00;99.90
16814;DHT22;8524;57.650;11.926;2023-09-19T01:05:44;18.00;99.90
16814;DHT22;8524;57.650;11.926;2023-09-19T01:08:10;18.00;99.90
16814;DHT22;8524;57.650;11.926;2023-09-19T01:10:52;17.90;99.90
16814;DHT22;8524;57.650;11.926;2023-09-19T01:13:27;17.90;99.90
16814;DHT22;8524;57.650;11.926;2023-09-19T01:16:03;17.90;99.90
16814;DHT22;8524;57.650;11.926;2023-09-19T01:18:37;17.90;99.90
16814;DHT22;8524;57.650;11.926;2023-09-19T01:21:13;18.00;99.90
16814;DHT22;8524;57.650;11.926;2023-09-19T01:24:08;17.90;99.90
16814;DHT22;8524;57.650;11.926;2023-09-19T01:26:55;17.90;99.90
16814;DHT22;8524;57.650;11.926;2023-09-19T01:29:33;18.00;99.90
16814;DHT22;8524;57.650;11.926;2023-09-19T01:32:04;17.90;99.90
16814;DHT22;8524;57.650;11.926;2023-09-19T01:34:44;17.90;99.90
16814;DHT22;8524;57.650;11.926;2023-09-19T01:37:12;17.90;99.90
16814;DHT22;8524;57.650;11.926;2023-09-19T01:39:39;17.90;99.90
16814;DHT22;8524;57.650;11.926;2023-09-19T01:42:15;18.00;99.90
16814;DHT22;8524;57.650;11.926;2023-09-19T01:44:53;18.00;99.90
16814;DHT22;8524;57.650;11.926;2023-09-19T01:47:28;18.00;99.90
16814;DHT22;8524;57.650;11.926;2023-09-19T01:50:06;18.00;99.90
16814;DHT22;8524;57.650;11.926;2023-09-19T01:52:40;18.00;99.90
16814;DHT22;8524;57.650;11.926;2023-09-19T01:55:10;18.00;99.90
16814;DHT22;8524;57.650;11.926;2023-09-19T01:57:45;18.10;99.90
16814;DHT22;8524;57.650;11.926;2023-09-19T02:00:17;18.10;99.90
16814;DHT22;8524;57.650;11.926;2023-09-19T02:02:47;18.10;99.90
16814;DHT22;8524;57.650;11.926;2023-09-19T02:05:22;18.10;99.90
16814;DHT22;8524;57.650;11.926;2023-09-19T02:07:49;18.10;99.90
16814;DHT22;8524;57.650;11.926;2023-09-19T02:10:16;18.20;99.90
16814;DHT22;8524;57.650;11.926;2023-09-19T02:12:43;18.10;99.90
16814;DHT22;8524;57.650;11.926;2023-09-19T02:15:12;18.10;99.90
16814;DHT22;8524;57.650;11.926;2023-09-19T02:17:41;18.10;99.90
16814;DHT22;8524;57.650;11.926;2023-09-19T02:20:10;18.10;99.90
16814;DHT22;8524;57.650;11.926;2023-09-19T02:22:40;18.10;99.90
16814;DHT22;8524;57.650;11.926;2023-09-19T02:25:07;18.20;99.90
16814;DHT22;8524;57.650;11.926;2023-09-19T02:27:34;18.30;99.90
16814;DHT22;8524;57.650;11.926;2023-09-19T02:30:01;18.30;99.90
16814;DHT22;8524;57.650;11.926;2023-09-19T02:32:30;18.30;99.90
16814;DHT22;8524;57.650;11.926;2023-09-19T02:34:57;18.40;99.90
16814;DHT22;8524;57.650;11.926;2023-09-19T02:37:26;18.50;99.90
16814;DHT22;8524;57.650;11.926;2023-09-19T02:39:53;18.50;99.90
16814;DHT22;8524;57.650;11.926;2023-09-19T02:42:20;18.50;99.90
16814;DHT22;8524;57.650;11.926;2023-09-19T02:44:47;18.50;99.90
16814;DHT22;8524;57.650;11.926;2023-09-19T02:47:14;18.50;99.90
16814;DHT22;8524;57.650;11.926;2023-09-19T02:49:42;18.60;99.90
16814;DHT22;8524;57.650;11.926;2023-09-19T02:52:09;18.60;99.90
16814;DHT22;8524;57.650;11.926;2023-09-19T02:54:38;18.50;99.90
16814;DHT22;8524;57.650;11.926;2023-09-19T02:57:05;18.60;99.90
16814;DHT22;8524;57.650;11.926;2023-09-19T02:59:33;18.50;99.90
16814;DHT22;8524;57.650;11.926;2023-09-19T03:02:03;18.50;99.90
16814;DHT22;8524;57.650;11.926;2023-09-19T03:04:31;18.60;99.90
16814;DHT22;8524;57.650;11.926;2023-09-19T03:06:58;18.50;99.90
16814;DHT22;8524;57.650;11.926;2023-09-19T03:09:26;18.50;99.90
16814;DHT22;8524;57.650;11.926;2023-09-19T03:11:55;18.50;99.90
16814;DHT22;8524;57.650;11.926;2023-09-19T03:14:22;18.40;99.90
16814;DHT22;8524;57.650;11.926;2023-09-19T03:16:49;18.40;99.90
16814;DHT22;8524;57.650;11.926;2023-09-19T03:19:17;18.40;99.90
16814;DHT22;8524;57.650;11.926;2023-09-19T03:21:46;18.30;99.90
16814;DHT22;8524;57.650;11.926;2023-09-19T03:24:15;18.30;99.90
16814;DHT22;8524;57.650;11.926;2023-09-19T03:26:42;18.40;99.90
16814;DHT22;8524;57.650;11.926;2023-09-19T03:29:10;18.30;99.90
16814;DHT22;8524;57.650;11.926;2023-09-19T03:31:37;18.40;99.90
16814;DHT22;8524;57.650;11.926;2023-09-19T03:34:04;18.30;99.90
16814;DHT22;8524;57.650;11.926;2023-09-19T03:36:31;18.40;99.90
16814;DHT22;8524;57.650;11.926;2023-09-19T03:39:01;18.40;99.90
16814;DHT22;8524;57.650;11.926;2023-09-19T03:41:30;18.20;99.90
16814;DHT22;8524;57.650;11.926;2023-09-19T03:43:58;18.20;99.90
16814;DHT22;8524;57.650;11.926;2023-09-19T03:46:27;18.20;99.90
16814;DHT22;8524;57.650;11.926;2023-09-19T03:48:54;18.10;99.90
16814;DHT22;8524;57.650;11.926;2023-09-19T03:51:21;18.10;99.90
16814;DHT22;8524;57.650;11.926;2023-09-19T03:53:48;18.10;99.90
16814;DHT22;8524;57.650;11.926;2023-09-19T03:56:16;18.10;99.90
16814;DHT22;8524;57.650;11.926;2023-09-19T03:58:43;18.00;99.90
16814;DHT22;8524;57.650;11.926;2023-09-19T04:01:10;18.00;99.90
16814;DHT22;8524;57.650;11.926;2023-09-19T04:03:40;18.00;99.90
16814;DHT22;8524;57.650;11.926;2023-09-19T04:06:13;18.10;99.90
16814;DHT22;8524;57.650;11.926;2023-09-19T04:08:40;18.10;99.90
16814;DHT22;8524;57.650;11.926;2023-09-19T04:11:07;18.00;99.90
16814;DHT22;8524;57.650;11.926;2023-09-19T04:13:34;18.10;99.90
16814;DHT22;8524;57.650;11.926;2023-09-19T04:16:01;18.10;99.90
16814;DHT22;8524;57.650;11.926;2023-09-19T04:18:29;18.00;99.90
16814;DHT22;8524;57.650;11.926;2023-09-19T04:20:59;18.00;99.90
16814;DHT22;8524;57.650;11.926;2023-09-19T04:23:28;18.00;99.90
16814;DHT22;8524;57.650;11.926;2023-09-19T04:25:55;18.00;99.90
16814;DHT22;8524;57.650;11.926;2023-09-19T04:28:22;18.00;99.90
16814;DHT22;8524;57.650;11.926;2023-09-19T04:30:49;17.90;99.90
16814;DHT22;8524;57.650;11.926;2023-09-19T04:33:16;17.90;99.90
16814;DHT22;8524;57.650;11.926;2023-09-19T04:35:43;17.90;99.90
16814;DHT22;8524;57.650;11.926;2023-09-19T04:38:11;17.80;99.90
16814;DHT22;8524;57.650;11.926;2023-09-19T04:40:39;17.70;99.90
16814;DHT22;8524;57.650;11.926;2023-09-19T04:43:06;17.60;99.90
16814;DHT22;8524;57.650;11.926;2023-09-19T04:45:33;17.60;99.90
16814;DHT22;8524;57.650;11.926;2023-09-19T04:48:00;17.50;99.90
16814;DHT22;8524;57.650;11.926;2023-09-19T04:50:28;17.40;99.90
16814;DHT22;8524;57.650;11.926;2023-09-19T04:52:55;17.30;99.90
16814;DHT22;8524;57.650;11.926;2023-09-19T04:55:23;17.20;99.90
16814;DHT22;8524;57.650;11.926;2023-09-19T04:57:51;17.20;99.90
16814;DHT22;8524;57.650;11.926;2023-09-19T05:00:19;17.20;99.90
16814;DHT22;8524;57.650;11.926;2023-09-19T05:02:49;17.00;99.90
16814;DHT22;8524;57.650;11.926;2023-09-19T05:05:17;16.90;99.90
16814;DHT22;8524;57.650;11.926;2023-09-19T05:07:44;16.90;99.90
16814;DHT22;8524;57.650;11.926;2023-09-19T05:10:11;16.80;99.90
16814;DHT22;8524;57.650;11.926;2023-09-19T05:12:41;16.70;99.90
16814;DHT22;8524;57.650;11.926;2023-09-19T05:15:10;16.70;99.90
16814;DHT22;8524;57.650;11.926;2023-09-19T05:17:37;16.70;99.90
16814;DHT22;8524;57.650;11.926;2023-09-19T05:20:06;16.70;99.90
16814;DHT22;8524;57.650;11.926;2023-09-19T05:22:46;16.70;99.90
16814;DHT22;8524;57.650;11.926;2023-09-19T05:25:13;16.70;99.90
16814;DHT22;8524;57.650;11.926;2023-09-19T05:27:43;16.60;99.90
16814;DHT22;8524;57.650;11.926;2023-09-19T05:30:11;16.60;99.90
16814;DHT22;8524;57.650;11.926;2023-09-19T05:32:39;16.60;99.90
16814;DHT22;8524;57.650;11.926;2023-09-19T05:35:06;16.50;99.90
16814;DHT22;8524;57.650;11.926;2023-09-19T05:37:35;16.60;99.90
16814;DHT22;8524;57.650;11.926;2023-09-19T05:40:02;16.50;99.90
16814;DHT22;8524;57.650;11.926;2023-09-19T05:42:35;16.50;99.90
16814;DHT22;8524;57.650;11.926;2023-09-19T05:45:04;16.50;99.90
16814;DHT22;8524;57.650;11.926;2023-09-19T05:47:31;16.50;99.90
16814;DHT22;8524;57.650;11.926;2023-09-19T05:49:58;16.40;99.90
16814;DHT22;8524;57.650;11.926;2023-09-19T05:52:26;16.40;99.90
16814;DHT22;8524;57.650;11.926;2023-09-19T05:54:53;16.40;99.90
16814;DHT22;8524;57.650;11.926;2023-09-19T05:57:20;16.40;99.90
16814;DHT22;8524;57.650;11.926;2023-09-19T05:59:48;16.40;99.90
16814;DHT22;8524;57.650;11.926;2023-09-19T06:02:17;16.30;99.90
16814;DHT22;8524;57.650;11.926;2023-09-19T06:04:45;16.40;99.90
16814;DHT22;8524;57.650;11.926;2023-09-19T06:07:12;16.30;99.90
16814;DHT22;8524;57.650;11.926;2023-09-19T06:09:39;16.30;99.90
16814;DHT22;8524;57.650;11.926;2023-09-19T06:12:07;16.30;99.90
16814;DHT22;8524;57.650;11.926;2023-09-19T06:14:34;16.30;99.90
16814;DHT22;8524;57.650;11.926;2023-09-19T06:17:01;16.30;99.90
16814;DHT22;8524;57.650;11.926;2023-09-19T06:19:29;16.30;99.90
16814;DHT22;8524;57.650;11.926;2023-09-19T06:21:56;16.30;99.90
16814;DHT22;8524;57.650;11.926;2023-09-19T06:24:25;16.30;99.90
16814;DHT22;8524;57.650;11.926;2023-09-19T06:26:52;16.20;99.90
16814;DHT22;8524;57.650;11.926;2023-09-19T06:29:26;16.20;99.90
16814;DHT22;8524;57.650;11.926;2023-09-19T06:31:53;16.20;99.90
16814;DHT22;8524;57.650;11.926;2023-09-19T06:34:20;16.30;99.90
16814;DHT22;8524;57.650;11.926;2023-09-19T06:36:51;16.30;99.90
16814;DHT22;8524;57.650;11.926;2023-09-19T06:39:21;16.30;99.90
16814;DHT22;8524;57.650;11.926;2023-09-19T06:41:49;16.30;99.90
16814;DHT22;8524;57.650;11.926;2023-09-19T06:44:16;16.40;99.90
16814;DHT22;8524;57.650;11.926;2023-09-19T06:46:43;16.40;99.90
16814;DHT22;8524;57.650;11.926;2023-09-19T06:49:12;16.40;99.90
16814;DHT22;8524;57.650;11.926;2023-09-19T06:51:41;16.50;99.90
16814;DHT22;8524;57.650;11.926;2023-09-19T06:54:10;16.50;99.90
16814;DHT22;8524;57.650;11.926;2023-09-19T06:56:38;16.60;99.90
16814;DHT22;8524;57.650;11.926;2023-09-19T06:59:07;16.60;99.90
16814;DHT22;8524;57.650;11.926;2023-09-19T07:01:34;16.70;99.90
16814;DHT22;8524;57.650;11.926;2023-09-19T07:04:03;16.60;99.90
16814;DHT22;8524;57.650;11.926;2023-09-19T07:06:31;16.60;99.90
16814;DHT22;8524;57.650;11.926;2023-09-19T07:08:59;16.70;99.90
16814;DHT22;8524;57.650;11.926;2023-09-19T07:11:27;16.70;99.90
16814;DHT22;8524;57.650;11.926;2023-09-19T07:13:56;16.70;99.90
16814;DHT22;8524;57.650;11.926;2023-09-19T07:16:23;16.70;99.90
16814;DHT22;8524;57.650;11.926;2023-09-19T07:18:55;16.70;99.90
16814;DHT22;8524;57.650;11.926;2023-09-19T07:21:23;16.60;99.90
16814;DHT22;8524;57.650;11.926;2023-09-19T07:23:50;16.70;99.90
16814;DHT22;8524;57.650;11.926;2023-09-19T07:26:17;16.70;99.90
16814;DHT22;8524;57.650;11.926;2023-09-19T07:28:45;16.90;99.90
16814;DHT22;8524;57.650;11.926;2023-09-19T07:31:13;16.80;99.90
16814;DHT22;8524;57.650;11.926;2023-09-19T07:33:40;16.70;99.90
16814;DHT22;8524;57.650;11.926;2023-09-19T07:36:11;16.70;99.90
16814;DHT22;8524;57.650;11.926;2023-09-19T07:38:39;16.50;99.90
16814;DHT22;8524;57.650;11.926;2023-09-19T07:41:07;16.70;99.90
16814;DHT22;8524;57.650;11.926;2023-09-19T07:43:35;16.80;99.90
16814;DHT22;8524;57.650;11.926;2023-09-19T07:46:05;16.90;99.90
16814;DHT22;8524;57.650;11.926;2023-09-19T07:48:35;16.90;99.90
16814;DHT22;8524;57.650;11.926;2023-09-19T07:51:03;16.90;99.90
16814;DHT22;8524;57.650;11.926;2023-09-19T07:53:30;17.00;99.90
16814;DHT22;8524;57.650;11.926;2023-09-19T07:56:03;16.90;99.90
16814;DHT22;8524;57.650;11.926;2023-09-19T07:58:30;16.80;99.90
16814;DHT22;8524;57.650;11.926;2023-09-19T08:01:04;16.90;99.90
16814;DHT22;8524;57.650;11.926;2023-09-19T08:03:32;16.90;99.90
16814;DHT22;8524;57.650;11.926;2023-09-19T08:05:59;16.90;99.90
16814;DHT22;8524;57.650;11.926;2023-09-19T08:08:26;16.90;99.90
16814;DHT22;8524;57.650;11.926;2023-09-19T08:10:54;16.70;99.90
16814;DHT22;8524;57.650;11.926;2023-09-19T08:13:22;16.60;99.90
16814;DHT22;8524;57.650;11.926;2023-09-19T08:15:49;16.50;99.90
16814;DHT22;8524;57.650;11.926;2023-09-19T08:18:20;16.40;99.90
16814;DHT22;8524;57.650;11.926;2023-09-19T08:20:53;16.50;99.90
16814;DHT22;8524;57.650;11.926;2023-09-19T08:23:19;16.50;99.90
16814;DHT22;8524;57.650;11.926;2023-09-19T08:25:46;16.40;99.90
16814;DHT22;8524;57.650;11.926;2023-09-19T08:28:13;16.40;99.90
16814;DHT22;8524;57.650;11.926;2023-09-19T08:30:45;16.50;99.90
16814;DHT22;8524;57.650;11.926;2023-09-19T08:33:12;16.50;99.90
16814;DHT22;8524;57.650;11.926;2023-09-19T08:35:42;16.60;99.90
16814;DHT22;8524;57.650;11.926;2023-09-19T08:38:11;16.50;99.90
16814;DHT22;8524;57.650;11.926;2023-09-19T08:40:39;16.50;99.90
16814;DHT22;8524;57.650;11.926;2023-09-19T08:43:07;16.50;99.90
16814;DHT22;8524;57.650;11.926;2023-09-19T08:45:35;16.60;99.90
16814;DHT22;8524;57.650;11.926;2023-09-19T08:48:12;16.60;99.90
16814;DHT22;8524;57.650;11.926;2023-09-19T08:50:50;16.50;99.90
16814;DHT22;8524;57.650;11.926;2023-09-19T08:53:23;16.30;99.90
16814;DHT22;8524;57.650;11.926;2023-09-19T08:55:53;16.10;99.90
16814;DHT22;8524;57.650;11.926;2023-09-19T08:58:24;16.00;99.90
16814;DHT22;8524;57.650;11.926;2023-09-19T09:00:54;16.10;99.90
16814;DHT22;8524;57.650;11.926;2023-09-19T09:03:23;16.00;99.90
16814;DHT22;8524;57.650;11.926;2023-09-19T09:05:52;16.00;99.90
16814;DHT22;8524;57.650;11.926;2023-09-19T09:08:19;15.90;99.90
16814;DHT22;8524;57.650;11.926;2023-09-19T09:10:47;15.80;99.90
16814;DHT22;8524;57.650;11.926;2023-09-19T09:13:14;15.60;99.90
16814;DHT22;8524;57.650;11.926;2023-09-19T09:15:41;15.50;99.90
16814;DHT22;8524;57.650;11.926;2023-09-19T09:18:10;15.40;99.90
16814;DHT22;8524;57.650;11.926;2023-09-19T09:20:37;15.40;99.90
16814;DHT22;8524;57.650;11.926;2023-09-19T09:23:06;15.50;99.90
16814;DHT22;8524;57.650;11.926;2023-09-19T09:25:50;15.50;99.90
16814;DHT22;8524;57.650;11.926;2023-09-19T09:28:21;15.80;99.90
16814;DHT22;8524;57.650;11.926;2023-09-19T09:30:49;15.90;99.90
16814;DHT22;8524;57.650;11.926;2023-09-19T09:33:17;15.90;99.90
16814;DHT22;8524;57.650;11.926;2023-09-19T09:35:51;15.90;99.90
16814;DHT22;8524;57.650;11.926;2023-09-19T09:38:20;16.10;99.90
16814;DHT22;8524;57.650;11.926;2023-09-19T09:40:52;16.20;99.90
16814;DHT22;8524;57.650;11.926;2023-09-19T09:43:32;16.10;99.90
16814;DHT22;8524;57.650;11.926;2023-09-19T09:46:12;16.30;99.90
16814;DHT22;8524;57.650;11.926;2023-09-19T09:48:58;16.70;99.90
16814;DHT22;8524;57.650;11.926;2023-09-19T09:51:44;16.60;99.90
16814;DHT22;8524;57.650;11.926;2023-09-19T09:54:16;16.30;99.90
16814;DHT22;8524;57.650;11.926;2023-09-19T09:56:56;16.10;99.90
16814;DHT22;8524;57.650;11.926;2023-09-19T09:59:47;15.90;99.90
16814;DHT22;8524;57.650;11.926;2023-09-19T10:02:15;15.70;99.90
16814;DHT22;8524;57.650;11.926;2023-09-19T10:04:50;15.60;99.90
16814;DHT22;8524;57.650;11.926;2023-09-19T10:07:29;15.60;99.90
16814;DHT22;8524;57.650;11.926;2023-09-19T10:10:04;15.50;99.90
16814;DHT22;8524;57.650;11.926;2023-09-19T10:12:44;15.40;99.90
16814;DHT22;8524;57.650;11.926;2023-09-19T10:15:15;15.50;99.90
16814;DHT22;8524;57.650;11.926;2023-09-19T10:17:44;15.70;99.90
16814;DHT22;8524;57.650;11.926;2023-09-19T10:20:16;15.80;99.90
16814;DHT22;8524;57.650;11.926;2023-09-19T10:23:00;15.90;99.90
16814;DHT22;8524;57.650;11.926;2023-09-19T10:25:29;15.90;99.90
16814;DHT22;8524;57.650;11.926;2023-09-19T10:27:57;15.90;99.90
16814;DHT22;8524;57.650;11.926;2023-09-19T10:30:29;15.90;99.90
16814;DHT22;8524;57.650;11.926;2023-09-19T10:33:00;16.00;99.90
16814;DHT22;8524;57.650;11.926;2023-09-19T10:35:28;15.90;99.90
16814;DHT22;8524;57.650;11.926;2023-09-19T10:38:00;15.80;99.90
16814;DHT22;8524;57.650;11.926;2023-09-19T10:40:30;15.90;99.90
16814;DHT22;8524;57.650;11.926;2023-09-19T10:43:02;15.90;99.90
16814;DHT22;8524;57.650;11.926;2023-09-19T10:45:31;15.90;99.90
16814;DHT22;8524;57.650;11.926;2023-09-19T10:47:58;15.90;99.90
16814;DHT22;8524;57.650;11.926;2023-09-19T10:50:29;16.00;99.90
16814;DHT22;8524;57.650;11.926;2023-09-19T10:53:01;16.10;99.90
16814;DHT22;8524;57.650;11.926;2023-09-19T10:55:33;16.00;99.90
16814;DHT22;8524;57.650;11.926;2023-09-19T10:58:03;15.90;99.90
16814;DHT22;8524;57.650;11.926;2023-09-19T11:00:53;15.80;99.90
16814;DHT22;8524;57.650;11.926;2023-09-19T11:03:21;15.60;99.90
16814;DHT22;8524;57.650;11.926;2023-09-19T11:06:06;15.50;99.90
16814;DHT22;8524;57.650;11.926;2023-09-19T11:08:59;15.50;99.90
16814;DHT22;8524;57.650;11.926;2023-09-19T11:11:53;15.50;99.90
16814;DHT22;8524;57.650;11.926;2023-09-19T11:14:42;15.40;99.90
16814;DHT22;8524;57.650;11.926;2023-09-19T11:17:40;15.40;99.90
16814;DHT22;8524;57.650;11.926;2023-09-19T11:20:29;15.50;99.90
16814;DHT22;8524;57.650;11.926;2023-09-19T11:23:21;15.60;99.90
16814;DHT22;8524;57.650;11.926;2023-09-19T11:25:49;16.00;99.90
16814;DHT22;8524;57.650;11.926;2023-09-19T11:28:32;16.40;99.90
16814;DHT22;8524;57.650;11.926;2023-09-19T11:31:00;16.60;99.90
16814;DHT22;8524;57.650;11.926;2023-09-19T11:33:47;16.70;99.90
16814;DHT22;8524;57.650;11.926;2023-09-19T11:36:16;16.80;99.90
16814;DHT22;8524;57.650;11.926;2023-09-19T11:39:00;17.00;99.90
16814;DHT22;8524;57.650;11.926;2023-09-19T11:41:44;17.20;99.90
16814;DHT22;8524;57.650;11.926;2023-09-19T11:44:35;17.20;99.90
16814;DHT22;8524;57.650;11.926;2023-09-19T11:47:05;17.20;99.90
16814;DHT22;8524;57.650;11.926;2023-09-19T11:49:33;17.10;99.90
16814;DHT22;8524;57.650;11.926;2023-09-19T11:52:03;17.10;99.90
16814;DHT22;8524;57.650;11.926;2023-09-19T11:54:32;17.20;99.90
16814;DHT22;8524;57.650;11.926;2023-09-19T11:57:00;17.00;99.90
16814;DHT22;8524;57.650;11.926;2023-09-19T11:59:28;17.00;99.90
16814;DHT22;8524;57.650;11.926;2023-09-19T12:02:00;17.30;99.90
16814;DHT22;8524;57.650;11.926;2023-09-19T12:04:43;17.50;99.90
16814;DHT22;8524;57.650;11.926;2023-09-19T12:07:12;17.60;99.90
16814;DHT22;8524;57.650;11.926;2023-09-19T12:09:41;17.60;99.90
16814;DHT22;8524;57.650;11.926;2023-09-19T12:12:10;17.70;99.90
16814;DHT22;8524;57.650;11.926;2023-09-19T12:14:41;17.60;99.90
16814;DHT22;8524;57.650;11.926;2023-09-19T12:17:10;17.60;99.90
16814;DHT22;8524;57.650;11.926;2023-09-19T12:19:49;17.50;99.90
16814;DHT22;8524;57.650;11.926;2023-09-19T12:22:17;17.40;99.90
16814;DHT22;8524;57.650;11.926;2023-09-19T12:24:46;17.40;99.90
16814;DHT22;8524;57.650;11.926;2023-09-19T12:27:13;17.50;99.90
16814;DHT22;8524;57.650;11.926;2023-09-19T12:29:48;17.30;99.90
16814;DHT22;8524;57.650;11.926;2023-09-19T12:32:17;17.30;99.90
16814;DHT22;8524;57.650;11.926;2023-09-19T12:34:51;17.20;99.90
16814;DHT22;8524;57.650;11.926;2023-09-19T12:37:20;16.90;99.90
16814;DHT22;8524;57.650;11.926;2023-09-19T12:39:49;16.80;99.90
16814;DHT22;8524;57.650;11.926;2023-09-19T12:42:19;16.70;99.90
16814;DHT22;8524;57.650;11.926;2023-09-19T12:44:47;16.60;99.90
16814;DHT22;8524;57.650;11.926;2023-09-19T12:47:18;16.60;99.90
16814;DHT22;8524;57.650;11.926;2023-09-19T12:50:08;16.60;99.90
16814;DHT22;8524;57.650;11.926;2023-09-19T12:52:41;16.60;99.90
16814;DHT22;8524;57.650;11.926;2023-09-19T12:55:19;16.70;99.90
16814;DHT22;8524;57.650;11.926;2023-09-19T12:58:07;16.70;99.90
16814;DHT22;8524;57.650;11.926;2023-09-19T13:00:36;16.70;99.90
16814;DHT22;8524;57.650;11.926;2023-09-19T13:03:14;16.60;99.90
16814;DHT22;8524;57.650;11.926;2023-09-19T13:05:50;16.70;99.90
16814;DHT22;8524;57.650;11.926;2023-09-19T13:08:24;16.90;99.90
16814;DHT22;8524;57.650;11.926;2023-09-19T13:11:09;17.00;99.90
16814;DHT22;8524;57.650;11.926;2023-09-19T13:13:39;17.00;99.90
16814;DHT22;8524;57.650;11.926;2023-09-19T13:16:07;17.10;99.90
16814;DHT22;8524;57.650;11.926;2023-09-19T13:18:47;17.10;99.90
16814;DHT22;8524;57.650;11.926;2023-09-19T13:21:17;17.10;99.90
16814;DHT22;8524;57.650;11.926;2023-09-19T13:23:51;17.10;99.90
16814;DHT22;8524;57.650;11.926;2023-09-19T13:26:20;17.10;99.90
16814;DHT22;8524;57.650;11.926;2023-09-19T13:28:48;17.20;99.90
16814;DHT22;8524;57.650;11.926;2023-09-19T13:31:15;17.20;99.10
16814;DHT22;8524;57.650;11.926;2023-09-19T13:33:47;17.10;99.90
16814;DHT22;8524;57.650;11.926;2023-09-19T13:36:16;17.10;98.20
16814;DHT22;8524;57.650;11.926;2023-09-19T13:38:47;17.10;99.90
16814;DHT22;8524;57.650;11.926;2023-09-19T13:41:15;17.20;99.90
16814;DHT22;8524;57.650;11.926;2023-09-19T13:43:42;17.10;99.90
16814;DHT22;8524;57.650;11.926;2023-09-19T13:46:14;17.20;99.90
16814;DHT22;8524;57.650;11.926;2023-09-19T13:48:42;17.20;99.90
16814;DHT22;8524;57.650;11.926;2023-09-19T13:51:10;17.20;99.90
16814;DHT22;8524;57.650;11.926;2023-09-19T13:53:37;17.10;99.90
16814;DHT22;8524;57.650;11.926;2023-09-19T13:56:04;17.00;99.90
16814;DHT22;8524;57.650;11.926;2023-09-19T13:58:32;16.90;99.90
16814;DHT22;8524;57.650;11.926;2023-09-19T14:00:59;16.70;99.90
16814;DHT22;8524;57.650;11.926;2023-09-19T14:03:26;16.70;99.90
16814;DHT22;8524;57.650;11.926;2023-09-19T14:05:53;16.60;99.90
16814;DHT22;8524;57.650;11.926;2023-09-19T14:08:22;16.50;99.90
16814;DHT22;8524;57.650;11.926;2023-09-19T14:10:49;16.50;99.90
16814;DHT22;8524;57.650;11.926;2023-09-19T14:13:16;16.40;99.90
16814;DHT22;8524;57.650;11.926;2023-09-19T14:15:43;16.30;99.90
16814;DHT22;8524;57.650;11.926;2023-09-19T14:18:10;16.10;99.90
16814;DHT22;8524;57.650;11.926;2023-09-19T14:20:38;16.00;99.90
16814;DHT22;8524;57.650;11.926;2023-09-19T14:23:06;16.00;99.90
16814;DHT22;8524;57.650;11.926;2023-09-19T14:25:35;15.90;99.90
16814;DHT22;8524;57.650;11.926;2023-09-19T14:28:04;15.90;99.90
16814;DHT22;8524;57.650;11.926;2023-09-19T14:30:32;15.80;99.90
16814;DHT22;8524;57.650;11.926;2023-09-19T14:32:59;15.80;99.90
16814;DHT22;8524;57.650;11.926;2023-09-19T14:35:26;15.80;99.90
16814;DHT22;8524;57.650;11.926;2023-09-19T14:37:53;15.80;99.90
16814;DHT22;8524;57.650;11.926;2023-09-19T14:40:20;15.80;99.90
16814;DHT22;8524;57.650;11.926;2023-09-19T14:42:49;15.90;99.90
16814;DHT22;8524;57.650;11.926;2023-09-19T14:45:16;15.90;99.90
16814;DHT22;8524;57.650;11.926;2023-09-19T14:47:45;16.00;99.90
16814;DHT22;8524;57.650;11.926;2023-09-19T14:50:12;15.90;99.90
16814;DHT22;8524;57.650;11.926;2023-09-19T14:52:40;15.60;99.90
16814;DHT22;8524;57.650;11.926;2023-09-19T14:55:07;15.40;99.90
16814;DHT22;8524;57.650;11.926;2023-09-19T14:57:40;15.30;99.90
16814;DHT22;8524;57.650;11.926;2023-09-19T15:00:10;15.20;99.90
16814;DHT22;8524;57.650;11.926;2023-09-19T15:02:38;15.10;99.90
16814;DHT22;8524;57.650;11.926;2023-09-19T15:05:06;15.10;99.90
16814;DHT22;8524;57.650;11.926;2023-09-19T15:07:34;15.00;99.90
16814;DHT22;8524;57.650;11.926;2023-09-19T15:10:02;14.90;99.90
16814;DHT22;8524;57.650;11.926;2023-09-19T15:12:32;14.80;99.90
16814;DHT22;8524;57.650;11.926;2023-09-19T15:15:00;14.80;99.90
16814;DHT22;8524;57.650;11.926;2023-09-19T15:17:29;14.70;99.90
16814;DHT22;8524;57.650;11.926;2023-09-19T15:19:55;14.70;99.90
16814;DHT22;8524;57.650;11.926;2023-09-19T15:22:22;14.70;99.90
16814;DHT22;8524;57.650;11.926;2023-09-19T15:24:50;14.70;99.90
16814;DHT22;8524;57.650;11.926;2023-09-19T15:27:17;14.60;99.90
16814;DHT22;8524;57.650;11.926;2023-09-19T15:29:45;14.60;99.90
16814;DHT22;8524;57.650;11.926;2023-09-19T15:32:13;14.70;99.90
16814;DHT22;8524;57.650;11.926;2023-09-19T15:34:41;14.60;99.90
16814;DHT22;8524;57.650;11.926;2023-09-19T15:37:08;14.60;99.90
16814;DHT22;8524;57.650;11.926;2023-09-19T15:39:35;14.60;99.90
16814;DHT22;8524;57.650;11.926;2023-09-19T15:42:02;14.50;99.90
16814;DHT22;8524;57.650;11.926;2023-09-19T15:44:29;14.50;99.90
16814;DHT22;8524;57.650;11.926;2023-09-19T15:46:56;14.40;99.90
16814;DHT22;8524;57.650;11.926;2023-09-19T15:49:23;14.40;99.90